sensor_id;sensor_type;location;lat;lon;timestamp;temperature;humidity
60723;DHT22;46574;52.818;6.516;2022-08-25T00:01:25;20.90;99.90
60723;DHT22;46574;52.818;6.516;2022-08-25T00:03:51;20.90;99.90
60723;DHT22;46574;52.818;6.516;2022-08-25T00:06:17;20.80;99.90
60723;DHT22;46574;52.818;6.516;2022-08-25T00:08:43;20.80;99.90
60723;DHT22;46574;52.818;6.516;2022-08-25T00:11:15;20.80;99.90
60723;DHT22;46574;52.818;6.516;2022-08-25T00:13:43;20.80;99.90
60723;DHT22;46574;52.818;6.516;2022-08-25T00:16:10;20.80;99.90
60723;DHT22;46574;52.818;6.516;2022-08-25T00:18:38;20.80;99.90
60723;DHT22;46574;52.818;6.516;2022-08-25T00:21:05;20.70;99.90
60723;DHT22;46574;52.818;6.516;2022-08-25T00:23:31;20.70;99.90
60723;DHT22;46574;52.818;6.516;2022-08-25T00:25:57;20.70;99.90
60723;DHT22;46574;52.818;6.516;2022-08-25T00:28:22;20.70;99.90
60723;DHT22;46574;52.818;6.516;2022-08-25T00:30:49;20.70;99.90
60723;DHT22;46574;52.818;6.516;2022-08-25T00:33:15;20.60;99.90
60723;DHT22;46574;52.818;6.516;2022-08-25T00:35:41;20.60;99.90
60723;DHT22;46574;52.818;6.516;2022-08-25T00:38:11;20.60;99.90
60723;DHT22;46574;52.818;6.516;2022-08-25T00:40:37;20.60;99.90
60723;DHT22;46574;52.818;6.516;2022-08-25T00:43:04;20.60;99.90
60723;DHT22;46574;52.818;6.516;2022-08-25T00:45:31;20.50;99.90
60723;DHT22;46574;52.818;6.516;2022-08-25T00:47:57;20.50;99.90
60723;DHT22;46574;52.818;6.516;2022-08-25T00:50:23;20.50;99.90
60723;DHT22;46574;52.818;6.516;2022-08-25T00:52:51;20.50;99.90
60723;DHT22;46574;52.818;6.516;2022-08-25T00:55:28;20.50;99.90
60723;DHT22;46574;52.818;6.516;2022-08-25T00:58:09;20.50;99.90
60723;DHT22;46574;52.818;6.516;2022-08-25T01:00:43;20.60;99.90
60723;DHT22;46574;52.818;6.516;2022-08-25T01:03:09;20.50;99.90
60723;DHT22;46574;52.818;6.516;2022-08-25T01:05:36;20.50;99.90
60723;DHT22;46574;52.818;6.516;2022-08-25T01:08:02;20.50;99.90
60723;DHT22;46574;52.818;6.516;2022-08-25T01:10:31;20.50;99.90
60723;DHT22;46574;52.818;6.516;2022-08-25T01:13:06;20.50;99.90
60723;DHT22;46574;52.818;6.516;2022-08-25T01:15:33;20.50;99.90
60723;DHT22;46574;52.818;6.516;2022-08-25T01:17:59;20.50;99.90
60723;DHT22;46574;52.818;6.516;2022-08-25T01:20:27;20.50;99.90
60723;DHT22;46574;52.818;6.516;2022-08-25T01:22:53;20.50;99.90
60723;DHT22;46574;52.818;6.516;2022-08-25T01:27:54;20.50;99.90
60723;DHT22;46574;52.818;6.516;2022-08-25T01:30:20;20.50;99.90
60723;DHT22;46574;52.818;6.516;2022-08-25T01:32:46;20.50;99.90
60723;DHT22;46574;52.818;6.516;2022-08-25T01:35:12;20.60;99.90
60723;DHT22;46574;52.818;6.516;2022-08-25T01:37:39;20.60;99.90
60723;DHT22;46574;52.818;6.516;2022-08-25T01:40:05;20.60;99.90
60723;DHT22;46574;52.818;6.516;2022-08-25T01:42:52;20.70;99.90
60723;DHT22;46574;52.818;6.516;2022-08-25T01:45:19;20.70;99.90
60723;DHT22;46574;52.818;6.516;2022-08-25T01:47:45;20.70;99.90
60723;DHT22;46574;52.818;6.516;2022-08-25T01:50:11;20.80;99.90
60723;DHT22;46574;52.818;6.516;2022-08-25T01:52:54;20.80;99.90
60723;DHT22;46574;52.818;6.516;2022-08-25T01:55:21;20.80;99.90
60723;DHT22;46574;52.818;6.516;2022-08-25T01:57:47;20.80;99.90
60723;DHT22;46574;52.818;6.516;2022-08-25T02:00:14;20.80;99.90
60723;DHT22;46574;52.818;6.516;2022-08-25T02:02:40;20.80;99.90
60723;DHT22;46574;52.818;6.516;2022-08-25T02:05:11;20.80;99.90
60723;DHT22;46574;52.818;6.516;2022-08-25T02:07:39;20.80;99.90
60723;DHT22;46574;52.818;6.516;2022-08-25T02:10:07;20.80;99.90
60723;DHT22;46574;52.818;6.516;2022-08-25T02:12:33;20.70;99.90
60723;DHT22;46574;52.818;6.516;2022-08-25T02:15:02;20.70;99.90
60723;DHT22;46574;52.818;6.516;2022-08-25T02:17:28;20.80;99.90
60723;DHT22;46574;52.818;6.516;2022-08-25T02:19:54;20.70;99.90
60723;DHT22;46574;52.818;6.516;2022-08-25T02:22:22;20.70;99.90
60723;DHT22;46574;52.818;6.516;2022-08-25T02:24:47;20.70;99.90
60723;DHT22;46574;52.818;6.516;2022-08-25T02:27:13;20.70;99.90
60723;DHT22;46574;52.818;6.516;2022-08-25T02:29:39;20.70;99.90
60723;DHT22;46574;52.818;6.516;2022-08-25T02:32:05;20.70;99.90
60723;DHT22;46574;52.818;6.516;2022-08-25T02:34:31;20.70;99.90
60723;DHT22;46574;52.818;6.516;2022-08-25T02:36:57;20.70;99.90
60723;DHT22;46574;52.818;6.516;2022-08-25T02:39:22;20.70;99.90
60723;DHT22;46574;52.818;6.516;2022-08-25T02:41:48;20.70;99.90
60723;DHT22;46574;52.818;6.516;2022-08-25T02:44:14;20.60;99.90
60723;DHT22;46574;52.818;6.516;2022-08-25T02:46:40;20.70;99.90
60723;DHT22;46574;52.818;6.516;2022-08-25T02:49:06;20.70;99.90
60723;DHT22;46574;52.818;6.516;2022-08-25T02:51:33;20.60;99.90
60723;DHT22;46574;52.818;6.516;2022-08-25T02:54:00;20.60;99.90
60723;DHT22;46574;52.818;6.516;2022-08-25T02:56:27;20.60;99.90
60723;DHT22;46574;52.818;6.516;2022-08-25T02:58:53;20.50;99.90
60723;DHT22;46574;52.818;6.516;2022-08-25T03:01:19;20.50;99.90
60723;DHT22;46574;52.818;6.516;2022-08-25T03:03:46;20.50;99.90
60723;DHT22;46574;52.818;6.516;2022-08-25T03:06:16;20.50;99.90
60723;DHT22;46574;52.818;6.516;2022-08-25T03:08:43;20.50;99.90
60723;DHT22;46574;52.818;6.516;2022-08-25T03:11:10;20.50;99.90
60723;DHT22;46574;52.818;6.516;2022-08-25T03:13:36;20.50;99.90
60723;DHT22;46574;52.818;6.516;2022-08-25T03:16:04;20.40;99.90
60723;DHT22;46574;52.818;6.516;2022-08-25T03:18:30;20.40;99.90
60723;DHT22;46574;52.818;6.516;2022-08-25T03:20:56;20.40;99.90
60723;DHT22;46574;52.818;6.516;2022-08-25T03:23:22;20.40;99.90
60723;DHT22;46574;52.818;6.516;2022-08-25T03:25:48;20.40;99.90
60723;DHT22;46574;52.818;6.516;2022-08-25T03:28:32;20.40;99.90
60723;DHT22;46574;52.818;6.516;2022-08-25T03:30:59;20.30;99.90
60723;DHT22;46574;52.818;6.516;2022-08-25T03:33:27;20.40;99.90
60723;DHT22;46574;52.818;6.516;2022-08-25T03:35:53;20.30;99.90
60723;DHT22;46574;52.818;6.516;2022-08-25T03:38:19;20.30;99.90
60723;DHT22;46574;52.818;6.516;2022-08-25T03:40:45;20.30;99.90
60723;DHT22;46574;52.818;6.516;2022-08-25T03:43:11;20.30;99.90
60723;DHT22;46574;52.818;6.516;2022-08-25T03:45:40;20.30;99.90
60723;DHT22;46574;52.818;6.516;2022-08-25T03:48:06;20.30;99.90
60723;DHT22;46574;52.818;6.516;2022-08-25T03:50:32;20.30;99.90
60723;DHT22;46574;52.818;6.516;2022-08-25T03:52:58;20.20;99.90
60723;DHT22;46574;52.818;6.516;2022-08-25T03:55:25;20.30;99.90
60723;DHT22;46574;52.818;6.516;2022-08-25T03:57:51;20.20;99.90
60723;DHT22;46574;52.818;6.516;2022-08-25T04:00:19;20.20;99.90
60723;DHT22;46574;52.818;6.516;2022-08-25T04:02:45;20.20;99.90
60723;DHT22;46574;52.818;6.516;2022-08-25T04:05:11;20.30;99.90
60723;DHT22;46574;52.818;6.516;2022-08-25T04:07:37;20.20;99.90
60723;DHT22;46574;52.818;6.516;2022-08-25T04:10:08;20.20;99.90
60723;DHT22;46574;52.818;6.516;2022-08-25T04:12:35;20.20;99.90
60723;DHT22;46574;52.818;6.516;2022-08-25T04:15:03;20.20;99.90
60723;DHT22;46574;52.818;6.516;2022-08-25T04:17:30;20.20;99.90
60723;DHT22;46574;52.818;6.516;2022-08-25T04:19:55;20.10;99.90
60723;DHT22;46574;52.818;6.516;2022-08-25T04:22:22;20.10;99.90
60723;DHT22;46574;52.818;6.516;2022-08-25T04:24:48;20.10;99.90
60723;DHT22;46574;52.818;6.516;2022-08-25T04:27:14;20.10;99.90
60723;DHT22;46574;52.818;6.516;2022-08-25T04:29:39;20.10;99.90
60723;DHT22;46574;52.818;6.516;2022-08-25T04:32:05;20.10;99.90
60723;DHT22;46574;52.818;6.516;2022-08-25T04:34:31;20.10;99.90
60723;DHT22;46574;52.818;6.516;2022-08-25T04:37:01;20.10;99.90
60723;DHT22;46574;52.818;6.516;2022-08-25T04:39:28;20.10;99.90
60723;DHT22;46574;52.818;6.516;2022-08-25T04:41:54;20.00;99.90
60723;DHT22;46574;52.818;6.516;2022-08-25T04:44:19;20.00;99.90
60723;DHT22;46574;52.818;6.516;2022-08-25T04:46:46;20.00;99.90
60723;DHT22;46574;52.818;6.516;2022-08-25T04:49:11;20.00;99.90
60723;DHT22;46574;52.818;6.516;2022-08-25T04:51:39;20.00;99.90
60723;DHT22;46574;52.818;6.516;2022-08-25T04:54:08;20.00;99.90
60723;DHT22;46574;52.818;6.516;2022-08-25T04:56:34;20.00;99.90
60723;DHT22;46574;52.818;6.516;2022-08-25T04:59:07;20.00;99.90
60723;DHT22;46574;52.818;6.516;2022-08-25T05:01:34;20.00;99.90
60723;DHT22;46574;52.818;6.516;2022-08-25T05:04:02;20.00;99.90
60723;DHT22;46574;52.818;6.516;2022-08-25T05:06:29;20.00;99.90
60723;DHT22;46574;52.818;6.516;2022-08-25T05:08:56;20.00;99.90
60723;DHT22;46574;52.818;6.516;2022-08-25T05:11:23;20.00;99.90
60723;DHT22;46574;52.818;6.516;2022-08-25T05:13:50;20.00;99.90
60723;DHT22;46574;52.818;6.516;2022-08-25T05:16:17;20.00;99.90
60723;DHT22;46574;52.818;6.516;2022-08-25T05:18:43;20.00;99.90
60723;DHT22;46574;52.818;6.516;2022-08-25T05:21:17;20.00;99.90
60723;DHT22;46574;52.818;6.516;2022-08-25T05:23:43;20.10;99.90
60723;DHT22;46574;52.818;6.516;2022-08-25T05:26:11;20.10;99.90
60723;DHT22;46574;52.818;6.516;2022-08-25T05:28:38;20.10;99.90
60723;DHT22;46574;52.818;6.516;2022-08-25T05:31:09;20.10;99.90
60723;DHT22;46574;52.818;6.516;2022-08-25T05:33:36;20.10;99.90
60723;DHT22;46574;52.818;6.516;2022-08-25T05:36:03;20.10;99.90
60723;DHT22;46574;52.818;6.516;2022-08-25T05:38:29;20.10;99.90
60723;DHT22;46574;52.818;6.516;2022-08-25T05:41:00;20.20;99.90
60723;DHT22;46574;52.818;6.516;2022-08-25T05:43:26;20.20;99.90
60723;DHT22;46574;52.818;6.516;2022-08-25T05:45:54;20.20;99.90
60723;DHT22;46574;52.818;6.516;2022-08-25T05:48:20;20.20;99.90
60723;DHT22;46574;52.818;6.516;2022-08-25T05:50:52;20.30;99.90
60723;DHT22;46574;52.818;6.516;2022-08-25T05:53:20;20.30;99.90
60723;DHT22;46574;52.818;6.516;2022-08-25T05:55:46;20.30;99.90
60723;DHT22;46574;52.818;6.516;2022-08-25T05:58:11;20.30;99.90
60723;DHT22;46574;52.818;6.516;2022-08-25T06:00:38;20.40;99.90
60723;DHT22;46574;52.818;6.516;2022-08-25T06:03:04;20.40;99.90
60723;DHT22;46574;52.818;6.516;2022-08-25T06:05:29;20.40;99.90
60723;DHT22;46574;52.818;6.516;2022-08-25T06:07:56;20.50;99.90
60723;DHT22;46574;52.818;6.516;2022-08-25T06:10:22;20.50;99.90
60723;DHT22;46574;52.818;6.516;2022-08-25T06:12:48;20.50;99.90
60723;DHT22;46574;52.818;6.516;2022-08-25T06:15:17;20.60;99.90
60723;DHT22;46574;52.818;6.516;2022-08-25T06:17:44;20.60;99.90
60723;DHT22;46574;52.818;6.516;2022-08-25T06:20:13;20.60;99.90
60723;DHT22;46574;52.818;6.516;2022-08-25T06:22:39;20.70;99.90
60723;DHT22;46574;52.818;6.516;2022-08-25T06:25:06;20.70;99.90
60723;DHT22;46574;52.818;6.516;2022-08-25T06:27:33;20.80;99.90
60723;DHT22;46574;52.818;6.516;2022-08-25T06:29:59;20.90;99.90
60723;DHT22;46574;52.818;6.516;2022-08-25T06:32:30;20.90;99.90
60723;DHT22;46574;52.818;6.516;2022-08-25T06:34:57;21.00;99.90
60723;DHT22;46574;52.818;6.516;2022-08-25T06:37:24;21.00;99.90
60723;DHT22;46574;52.818;6.516;2022-08-25T06:39:52;21.10;99.90
60723;DHT22;46574;52.818;6.516;2022-08-25T06:42:18;21.10;99.90
60723;DHT22;46574;52.818;6.516;2022-08-25T06:44:44;21.20;99.90
60723;DHT22;46574;52.818;6.516;2022-08-25T06:47:09;21.20;99.90
60723;DHT22;46574;52.818;6.516;2022-08-25T06:49:35;21.20;99.90
60723;DHT22;46574;52.818;6.516;2022-08-25T06:52:01;21.30;99.90
60723;DHT22;46574;52.818;6.516;2022-08-25T06:54:27;21.40;99.90
60723;DHT22;46574;52.818;6.516;2022-08-25T06:56:52;21.40;99.90
60723;DHT22;46574;52.818;6.516;2022-08-25T06:59:18;21.50;99.90
60723;DHT22;46574;52.818;6.516;2022-08-25T07:01:44;21.50;99.90
60723;DHT22;46574;52.818;6.516;2022-08-25T07:04:10;21.60;99.90
60723;DHT22;46574;52.818;6.516;2022-08-25T07:06:36;21.70;99.90
60723;DHT22;46574;52.818;6.516;2022-08-25T07:09:06;21.80;99.90
60723;DHT22;46574;52.818;6.516;2022-08-25T07:11:32;21.80;99.90
60723;DHT22;46574;52.818;6.516;2022-08-25T07:14:03;21.90;99.90
60723;DHT22;46574;52.818;6.516;2022-08-25T07:16:30;22.00;99.90
60723;DHT22;46574;52.818;6.516;2022-08-25T07:18:57;22.10;99.90
60723;DHT22;46574;52.818;6.516;2022-08-25T07:21:24;22.20;99.90
60723;DHT22;46574;52.818;6.516;2022-08-25T07:23:50;22.20;99.90
60723;DHT22;46574;52.818;6.516;2022-08-25T07:26:21;22.30;99.90
60723;DHT22;46574;52.818;6.516;2022-08-25T07:28:49;22.40;99.90
60723;DHT22;46574;52.818;6.516;2022-08-25T07:31:15;22.50;99.90
60723;DHT22;46574;52.818;6.516;2022-08-25T07:33:41;22.60;99.90
60723;DHT22;46574;52.818;6.516;2022-08-25T07:36:27;22.70;99.90
60723;DHT22;46574;52.818;6.516;2022-08-25T07:38:52;22.80;99.90
60723;DHT22;46574;52.818;6.516;2022-08-25T07:41:18;22.80;99.90
60723;DHT22;46574;52.818;6.516;2022-08-25T07:43:44;22.90;99.90
60723;DHT22;46574;52.818;6.516;2022-08-25T07:46:10;23.00;99.90
60723;DHT22;46574;52.818;6.516;2022-08-25T07:48:35;23.10;99.90
60723;DHT22;46574;52.818;6.516;2022-08-25T07:51:10;23.20;99.90
60723;DHT22;46574;52.818;6.516;2022-08-25T07:53:36;23.30;99.90
60723;DHT22;46574;52.818;6.516;2022-08-25T07:56:02;23.30;99.90
60723;DHT22;46574;52.818;6.516;2022-08-25T07:58:28;23.40;99.90
60723;DHT22;46574;52.818;6.516;2022-08-25T08:00:53;23.50;99.90
60723;DHT22;46574;52.818;6.516;2022-08-25T08:03:19;23.60;99.90
60723;DHT22;46574;52.818;6.516;2022-08-25T08:05:45;23.70;99.90
60723;DHT22;46574;52.818;6.516;2022-08-25T08:08:11;23.70;99.90
60723;DHT22;46574;52.818;6.516;2022-08-25T08:10:40;23.80;99.90
60723;DHT22;46574;52.818;6.516;2022-08-25T08:13:07;23.90;99.90
60723;DHT22;46574;52.818;6.516;2022-08-25T08:15:35;23.90;99.90
60723;DHT22;46574;52.818;6.516;2022-08-25T08:18:01;24.00;99.90
60723;DHT22;46574;52.818;6.516;2022-08-25T08:20:28;24.20;99.90
60723;DHT22;46574;52.818;6.516;2022-08-25T08:22:56;24.30;99.90
60723;DHT22;46574;52.818;6.516;2022-08-25T08:25:22;24.40;99.90
60723;DHT22;46574;52.818;6.516;2022-08-25T08:27:47;24.50;99.90
60723;DHT22;46574;52.818;6.516;2022-08-25T08:30:13;24.60;99.90
60723;DHT22;46574;52.818;6.516;2022-08-25T08:32:39;24.60;99.90
60723;DHT22;46574;52.818;6.516;2022-08-25T08:35:05;24.70;99.90
60723;DHT22;46574;52.818;6.516;2022-08-25T08:37:31;24.80;99.90
60723;DHT22;46574;52.818;6.516;2022-08-25T08:39:57;25.00;99.50
60723;DHT22;46574;52.818;6.516;2022-08-25T08:42:36;25.00;98.80
60723;DHT22;46574;52.818;6.516;2022-08-25T08:53:58;25.60;97.10
60723;DHT22;46574;52.818;6.516;2022-08-25T08:56:30;25.70;95.40
60723;DHT22;46574;52.818;6.516;2022-08-25T08:59:02;25.90;92.70
60723;DHT22;46574;52.818;6.516;2022-08-25T09:04:19;26.20;90.30
60723;DHT22;46574;52.818;6.516;2022-08-25T09:06:48;26.40;80.70
60723;DHT22;46574;52.818;6.516;2022-08-25T09:09:27;26.60;82.50
60723;DHT22;46574;52.818;6.516;2022-08-25T09:23:26;27.60;68.70
60723;DHT22;46574;52.818;6.516;2022-08-25T09:26:24;27.80;68.50
60723;DHT22;46574;52.818;6.516;2022-08-25T09:29:20;28.00;68.30
60723;DHT22;46574;52.818;6.516;2022-08-25T09:31:47;28.10;65.30
60723;DHT22;46574;52.818;6.516;2022-08-25T09:34:22;28.30;62.60
60723;DHT22;46574;52.818;6.516;2022-08-25T09:36:48;28.40;62.60
60723;DHT22;46574;52.818;6.516;2022-08-25T09:39:17;28.50;60.60
60723;DHT22;46574;52.818;6.516;2022-08-25T09:41:47;28.60;60.50
60723;DHT22;46574;52.818;6.516;2022-08-25T09:44:31;28.70;60.70
60723;DHT22;46574;52.818;6.516;2022-08-25T09:49:47;28.90;57.50
60723;DHT22;46574;52.818;6.516;2022-08-25T09:52:30;29.00;55.20
60723;DHT22;46574;52.818;6.516;2022-08-25T09:55:30;29.10;55.60
60723;DHT22;46574;52.818;6.516;2022-08-25T09:57:57;29.10;54.40
60723;DHT22;46574;52.818;6.516;2022-08-25T10:00:27;29.20;55.40
60723;DHT22;46574;52.818;6.516;2022-08-25T10:03:20;29.30;54.10
60723;DHT22;46574;52.818;6.516;2022-08-25T10:06:08;29.40;55.40
60723;DHT22;46574;52.818;6.516;2022-08-25T10:08:40;29.50;54.60
60723;DHT22;46574;52.818;6.516;2022-08-25T10:11:36;29.60;53.10
60723;DHT22;46574;52.818;6.516;2022-08-25T10:14:18;29.70;53.50
60723;DHT22;46574;52.818;6.516;2022-08-25T10:16:45;29.80;53.20
60723;DHT22;46574;52.818;6.516;2022-08-25T10:21:40;29.90;52.80
60723;DHT22;46574;52.818;6.516;2022-08-25T10:24:09;30.00;51.90
60723;DHT22;46574;52.818;6.516;2022-08-25T10:38:37;30.20;50.60
60723;DHT22;46574;52.818;6.516;2022-08-25T10:56:28;30.10;49.20
60723;DHT22;46574;52.818;6.516;2022-08-25T10:59:13;30.10;49.00
60723;DHT22;46574;52.818;6.516;2022-08-25T11:01:53;30.10;49.80
60723;DHT22;46574;52.818;6.516;2022-08-25T11:05:14;30.10;48.80
60723;DHT22;46574;52.818;6.516;2022-08-25T11:07:37;30.00;48.90
60723;DHT22;46574;52.818;6.516;2022-08-25T11:10:18;30.00;49.00
60723;DHT22;46574;52.818;6.516;2022-08-25T11:12:49;29.90;48.30
60723;DHT22;46574;52.818;6.516;2022-08-25T11:15:26;29.90;48.70
60723;DHT22;46574;52.818;6.516;2022-08-25T11:17:56;29.90;48.30
60723;DHT22;46574;52.818;6.516;2022-08-25T11:20:31;29.90;49.40
60723;DHT22;46574;52.818;6.516;2022-08-25T11:26:08;29.90;46.50
60723;DHT22;46574;52.818;6.516;2022-08-25T11:28:56;29.80;47.40
60723;DHT22;46574;52.818;6.516;2022-08-25T11:31:24;29.80;46.30
60723;DHT22;46574;52.818;6.516;2022-08-25T11:33:57;29.70;48.00
60723;DHT22;46574;52.818;6.516;2022-08-25T11:36:33;29.70;47.90
60723;DHT22;46574;52.818;6.516;2022-08-25T11:42:12;29.60;48.90
60723;DHT22;46574;52.818;6.516;2022-08-25T11:44:57;29.60;48.80
60723;DHT22;46574;52.818;6.516;2022-08-25T11:47:50;29.60;48.90
60723;DHT22;46574;52.818;6.516;2022-08-25T11:50:28;29.60;48.80
60723;DHT22;46574;52.818;6.516;2022-08-25T11:53:15;29.60;49.30
60723;DHT22;46574;52.818;6.516;2022-08-25T11:55:45;29.60;49.00
60723;DHT22;46574;52.818;6.516;2022-08-25T12:00:46;29.70;47.60
60723;DHT22;46574;52.818;6.516;2022-08-25T12:11:45;29.70;45.50
60723;DHT22;46574;52.818;6.516;2022-08-25T12:19:48;29.80;45.60
60723;DHT22;46574;52.818;6.516;2022-08-25T12:30:26;29.70;46.40
60723;DHT22;46574;52.818;6.516;2022-08-25T12:36:06;29.80;45.80
60723;DHT22;46574;52.818;6.516;2022-08-25T12:38:45;29.80;45.70
60723;DHT22;46574;52.818;6.516;2022-08-25T12:41:22;29.80;45.50
60723;DHT22;46574;52.818;6.516;2022-08-25T12:43:50;29.80;45.30
60723;DHT22;46574;52.818;6.516;2022-08-25T12:59:53;29.80;45.30
60723;DHT22;46574;52.818;6.516;2022-08-25T13:11:31;29.90;46.20
60723;DHT22;46574;52.818;6.516;2022-08-25T13:14:02;29.80;45.60
60723;DHT22;46574;52.818;6.516;2022-08-25T13:16:29;29.90;45.80
60723;DHT22;46574;52.818;6.516;2022-08-25T13:18:56;29.90;46.00
60723;DHT22;46574;52.818;6.516;2022-08-25T13:21:27;30.00;45.00
60723;DHT22;46574;52.818;6.516;2022-08-25T13:23:55;30.00;45.40
60723;DHT22;46574;52.818;6.516;2022-08-25T13:26:31;29.90;45.80
60723;DHT22;46574;52.818;6.516;2022-08-25T13:29:17;30.00;45.80
60723;DHT22;46574;52.818;6.516;2022-08-25T13:34:32;30.00;46.20
60723;DHT22;46574;52.818;6.516;2022-08-25T13:37:21;30.00;46.50
60723;DHT22;46574;52.818;6.516;2022-08-25T13:40:13;30.00;45.70
60723;DHT22;46574;52.818;6.516;2022-08-25T13:42:45;30.00;45.50
60723;DHT22;46574;52.818;6.516;2022-08-25T13:45:16;30.10;46.60
60723;DHT22;46574;52.818;6.516;2022-08-25T13:47:43;30.00;46.50
60723;DHT22;46574;52.818;6.516;2022-08-25T13:50:28;30.10;46.50
60723;DHT22;46574;52.818;6.516;2022-08-25T13:53:10;30.00;46.60
60723;DHT22;46574;52.818;6.516;2022-08-25T13:55:52;30.00;47.40
60723;DHT22;46574;52.818;6.516;2022-08-25T13:58:21;30.00;45.60
60723;DHT22;46574;52.818;6.516;2022-08-25T14:01:12;30.00;46.90
60723;DHT22;46574;52.818;6.516;2022-08-25T14:03:42;30.00;46.90
60723;DHT22;46574;52.818;6.516;2022-08-25T14:08:46;30.00;46.80
60723;DHT22;46574;52.818;6.516;2022-08-25T14:11:59;30.00;46.90
60723;DHT22;46574;52.818;6.516;2022-08-25T14:14:08;29.90;45.80
60723;DHT22;46574;52.818;6.516;2022-08-25T14:16:44;29.90;45.20
60723;DHT22;46574;52.818;6.516;2022-08-25T14:19:15;30.00;45.10
60723;DHT22;46574;52.818;6.516;2022-08-25T14:21:41;30.00;43.80
60723;DHT22;46574;52.818;6.516;2022-08-25T14:24:07;30.00;45.00
60723;DHT22;46574;52.818;6.516;2022-08-25T14:26:32;30.00;44.20
60723;DHT22;46574;52.818;6.516;2022-08-25T14:28:58;30.00;44.70
60723;DHT22;46574;52.818;6.516;2022-08-25T14:31:33;30.00;44.40
60723;DHT22;46574;52.818;6.516;2022-08-25T14:34:04;30.00;44.40
60723;DHT22;46574;52.818;6.516;2022-08-25T14:36:32;30.00;44.80
60723;DHT22;46574;52.818;6.516;2022-08-25T14:38:58;29.90;45.00
60723;DHT22;46574;52.818;6.516;2022-08-25T14:41:25;29.90;46.10
60723;DHT22;46574;52.818;6.516;2022-08-25T14:43:51;30.00;46.00
60723;DHT22;46574;52.818;6.516;2022-08-25T14:46:26;30.00;45.50
60723;DHT22;46574;52.818;6.516;2022-08-25T14:48:59;30.00;44.90
60723;DHT22;46574;52.818;6.516;2022-08-25T14:51:26;29.90;44.30
60723;DHT22;46574;52.818;6.516;2022-08-25T14:53:55;29.90;44.80
60723;DHT22;46574;52.818;6.516;2022-08-25T14:56:22;29.90;45.60
60723;DHT22;46574;52.818;6.516;2022-08-25T14:58:47;29.90;46.00
60723;DHT22;46574;52.818;6.516;2022-08-25T15:01:15;29.80;46.10
60723;DHT22;46574;52.818;6.516;2022-08-25T15:03:44;29.90;45.80
60723;DHT22;46574;52.818;6.516;2022-08-25T15:06:13;29.80;45.30
60723;DHT22;46574;52.818;6.516;2022-08-25T15:08:39;29.90;45.00
60723;DHT22;46574;52.818;6.516;2022-08-25T15:11:24;29.90;45.90
60723;DHT22;46574;52.818;6.516;2022-08-25T15:13:50;29.90;46.20
60723;DHT22;46574;52.818;6.516;2022-08-25T15:16:37;29.90;46.10
60723;DHT22;46574;52.818;6.516;2022-08-25T15:19:07;29.90;46.10
60723;DHT22;46574;52.818;6.516;2022-08-25T15:21:35;29.80;46.00
60723;DHT22;46574;52.818;6.516;2022-08-25T15:24:01;29.80;46.20
60723;DHT22;46574;52.818;6.516;2022-08-25T15:26:26;29.80;46.00
60723;DHT22;46574;52.818;6.516;2022-08-25T15:28:53;29.90;46.30
60723;DHT22;46574;52.818;6.516;2022-08-25T15:31:19;29.90;46.80
60723;DHT22;46574;52.818;6.516;2022-08-25T15:33:45;29.90;47.50
60723;DHT22;46574;52.818;6.516;2022-08-25T15:36:15;29.90;47.40
60723;DHT22;46574;52.818;6.516;2022-08-25T15:38:42;29.90;47.20
60723;DHT22;46574;52.818;6.516;2022-08-25T15:41:09;29.90;47.60
60723;DHT22;46574;52.818;6.516;2022-08-25T15:43:35;29.90;47.70
60723;DHT22;46574;52.818;6.516;2022-08-25T15:46:02;29.90;47.50
60723;DHT22;46574;52.818;6.516;2022-08-25T15:48:28;29.80;47.70
60723;DHT22;46574;52.818;6.516;2022-08-25T15:50:55;29.90;47.40
60723;DHT22;46574;52.818;6.516;2022-08-25T15:53:22;29.90;48.10
60723;DHT22;46574;52.818;6.516;2022-08-25T15:55:50;29.90;47.90
60723;DHT22;46574;52.818;6.516;2022-08-25T15:58:16;30.00;48.10
60723;DHT22;46574;52.818;6.516;2022-08-25T16:00:43;30.00;48.20
60723;DHT22;46574;52.818;6.516;2022-08-25T16:03:09;30.00;47.90
60723;DHT22;46574;52.818;6.516;2022-08-25T16:05:36;30.10;48.90
60723;DHT22;46574;52.818;6.516;2022-08-25T16:08:03;30.10;48.70
60723;DHT22;46574;52.818;6.516;2022-08-25T16:10:32;30.10;48.80
60723;DHT22;46574;52.818;6.516;2022-08-25T16:12:59;30.10;48.60
60723;DHT22;46574;52.818;6.516;2022-08-25T16:15:26;30.10;48.90
60723;DHT22;46574;52.818;6.516;2022-08-25T16:17:52;30.20;49.70
60723;DHT22;46574;52.818;6.516;2022-08-25T16:20:18;30.20;50.10
60723;DHT22;46574;52.818;6.516;2022-08-25T16:22:46;30.20;49.50
60723;DHT22;46574;52.818;6.516;2022-08-25T16:25:12;30.30;49.40
60723;DHT22;46574;52.818;6.516;2022-08-25T16:27:38;30.40;49.20
60723;DHT22;46574;52.818;6.516;2022-08-25T16:30:05;30.50;49.80
60723;DHT22;46574;52.818;6.516;2022-08-25T16:32:31;30.50;50.80
60723;DHT22;46574;52.818;6.516;2022-08-25T16:34:57;30.60;51.70
60723;DHT22;46574;52.818;6.516;2022-08-25T16:37:23;30.60;51.40
60723;DHT22;46574;52.818;6.516;2022-08-25T16:39:53;30.60;49.50
60723;DHT22;46574;52.818;6.516;2022-08-25T16:42:18;30.70;51.30
60723;DHT22;46574;52.818;6.516;2022-08-25T16:44:44;30.70;51.50
60723;DHT22;46574;52.818;6.516;2022-08-25T16:47:10;30.70;51.80
60723;DHT22;46574;52.818;6.516;2022-08-25T16:49:37;30.70;51.60
60723;DHT22;46574;52.818;6.516;2022-08-25T16:52:03;30.70;51.80
60723;DHT22;46574;52.818;6.516;2022-08-25T16:54:49;30.70;51.90
60723;DHT22;46574;52.818;6.516;2022-08-25T16:57:33;30.70;50.60
60723;DHT22;46574;52.818;6.516;2022-08-25T16:59:59;30.70;50.70
60723;DHT22;46574;52.818;6.516;2022-08-25T17:02:24;30.70;51.40
60723;DHT22;46574;52.818;6.516;2022-08-25T17:04:50;30.70;52.20
60723;DHT22;46574;52.818;6.516;2022-08-25T17:07:16;30.70;52.10
60723;DHT22;46574;52.818;6.516;2022-08-25T17:09:41;30.70;53.50
60723;DHT22;46574;52.818;6.516;2022-08-25T17:12:07;30.60;52.40
60723;DHT22;46574;52.818;6.516;2022-08-25T17:14:33;30.50;53.30
60723;DHT22;46574;52.818;6.516;2022-08-25T17:17:00;30.40;54.20
60723;DHT22;46574;52.818;6.516;2022-08-25T17:19:26;30.30;54.60
60723;DHT22;46574;52.818;6.516;2022-08-25T17:21:52;30.20;55.20
60723;DHT22;46574;52.818;6.516;2022-08-25T17:24:19;30.10;55.30
60723;DHT22;46574;52.818;6.516;2022-08-25T17:26:45;30.00;55.20
60723;DHT22;46574;52.818;6.516;2022-08-25T17:29:14;29.90;55.60
60723;DHT22;46574;52.818;6.516;2022-08-25T17:31:40;29.80;56.20
60723;DHT22;46574;52.818;6.516;2022-08-25T17:34:11;29.70;56.50
60723;DHT22;46574;52.818;6.516;2022-08-25T17:36:38;29.50;56.60
60723;DHT22;46574;52.818;6.516;2022-08-25T17:39:05;29.30;57.20
60723;DHT22;46574;52.818;6.516;2022-08-25T17:41:31;29.20;57.30
60723;DHT22;46574;52.818;6.516;2022-08-25T17:43:58;29.00;57.50